Time;durP1;ratioP1;P1;durP2;ratioP2;P2;SDS_P1;SDS_P2;PMS_P1;PMS_P2;Temp;Humidity;BMP_temperature;BMP_pressure;BME280_temperature;BME280_humidity;BME280_pressure;Samples;Min_cycle;Max_cycle;Signal;HPM_P1;HPM_P2
2023/12/22 00:02:07;;;;;;;21.38;4.00;;;;;;;5.46;100.00;100257.47;5031723;28;20429;-82
2023/12/22 00:04:33;;;;;;;14.25;3.10;;;;;;;5.47;100.00;100256.53;5022554;28;20032;-82
2023/12/22 00:06:58;;;;;;;20.27;4.32;;;;;;;5.42;100.00;100240.34;5043460;28;20097;-82
2023/12/22 00:09:23;;;;;;;16.63;3.55;;;;;;;5.38;100.00;100238.03;5049135;28;20056;-82
2023/12/22 00:11:49;;;;;;;18.83;3.63;;;;;;;5.37;100.00;100252.84;5036223;28;20021;-82
2023/12/22 00:14:14;;;;;;;19.23;4.07;;;;;;;5.37;100.00;100231.97;5045166;28;20029;-82
2023/12/22 00:16:40;;;;;;;22.60;4.00;;;;;;;5.42;100.00;100235.13;5029375;28;20107;-82
2023/12/22 00:19:05;;;;;;;18.25;3.67;;;;;;;5.46;100.00;100236.59;5046845;28;20090;-82
2023/12/22 00:21:31;;;;;;;17.08;4.03;;;;;;;5.53;100.00;100258.75;5034920;28;20029;-82
2023/12/22 00:24:00;;;;;;;21.52;4.47;;;;;;;5.58;100.00;100261.91;5042670;28;20036;-82
2023/12/22 00:26:25;;;;;;;17.58;3.80;;;;;;;5.57;100.00;100273.28;5041959;28;20025;-81
2023/12/22 00:28:50;;;;;;;20.17;3.80;;;;;;;5.53;100.00;100279.63;5044146;28;20477;-82
2023/12/22 00:31:16;;;;;;;15.40;3.35;;;;;;;5.52;100.00;100270.13;5037162;28;20028;-82
2023/12/22 00:33:41;;;;;;;16.60;4.03;;;;;;;5.54;100.00;100293.53;5037936;28;20124;-82
2023/12/22 00:36:07;;;;;;;17.70;3.90;;;;;;;5.50;100.00;100290.25;5032981;28;20021;-82
2023/12/22 00:38:33;;;;;;;19.38;4.28;;;;;;;5.49;100.00;100288.59;5043789;28;20486;-82
2023/12/22 00:40:59;;;;;;;23.65;4.05;;;;;;;5.51;100.00;100291.94;5043783;28;20111;-82
2023/12/22 00:43:24;;;;;;;17.25;4.00;;;;;;;5.54;100.00;100286.53;5042296;28;20036;-82
2023/12/22 00:45:49;;;;;;;13.63;3.72;;;;;;;5.55;100.00;100280.38;5042231;28;20112;-82
2023/12/22 00:48:18;;;;;;;21.02;4.43;;;;;;;5.57;100.00;100280.28;5039105;28;20354;-83
2023/12/22 00:50:43;;;;;;;17.90;4.05;;;;;;;5.59;100.00;100289.69;5031159;28;20119;-82
2023/12/22 00:53:08;;;;;;;15.50;3.80;;;;;;;5.60;100.00;100288.78;5029511;28;20021;-82
2023/12/22 00:55:34;;;;;;;16.55;4.32;;;;;;;5.60;100.00;100275.75;5028261;28;20477;-82
2023/12/22 00:57:59;;;;;;;19.48;3.80;;;;;;;5.58;100.00;100290.63;5029027;28;20119;-82
2023/12/22 01:00:24;;;;;;;27.05;5.13;;;;;;;5.54;100.00;100290.91;5030339;28;20025;-82
2023/12/22 01:02:50;;;;;;;19.85;4.35;;;;;;;5.53;100.00;100279.63;5045792;28;20028;-83
2023/12/22 01:05:18;;;;;;;21.52;4.50;;;;;;;5.49;100.00;100283.38;5040446;28;20057;-83
2023/12/22 01:07:43;;;;;;;25.05;4.78;;;;;;;5.54;100.00;100299.56;5032330;28;20053;-82
2023/12/22 01:10:09;;;;;;;19.85;4.65;;;;;;;5.59;100.00;100309.72;5029473;28;20034;-83
2023/12/22 01:12:34;;;;;;;18.92;4.38;;;;;;;5.68;100.00;100277.03;5030091;28;20064;-82
2023/12/22 01:14:59;;;;;;;19.23;4.00;;;;;;;5.77;100.00;100286.88;5029078;28;20049;-83
2023/12/22 01:17:25;;;;;;;23.73;4.30;;;;;;;5.86;100.00;100288.91;5048467;28;20028;-83
2023/12/22 01:19:51;;;;;;;17.85;3.70;;;;;;;5.94;100.00;100289.28;5048469;28;20021;-83
2023/12/22 01:22:16;;;;;;;17.25;4.25;;;;;;;6.06;100.00;100291.13;5047338;28;20082;-82
2023/12/22 01:24:43;;;;;;;14.52;3.70;;;;;;;6.09;100.00;100290.94;5044725;28;20104;-82
2023/12/22 01:27:12;;;;;;;21.50;4.25;;;;;;;6.10;100.00;100313.50;5046038;28;20041;-83
2023/12/22 01:29:37;;;;;;;20.83;4.30;;;;;;;6.16;100.00;100309.66;5047703;28;20073;-83
2023/12/22 01:32:03;;;;;;;22.00;4.30;;;;;;;6.19;100.00;100325.97;5033078;28;20030;-83
2023/12/22 01:34:29;;;;;;;20.00;4.53;;;;;;;6.22;100.00;100320.53;5045895;28;20069;-83
2023/12/22 01:36:54;;;;;;;22.85;4.38;;;;;;;6.25;100.00;100320.34;5037934;28;20493;-83
2023/12/22 01:39:20;;;;;;;21.88;4.45;;;;;;;6.29;100.00;100321.81;5043820;28;20041;-83
2023/12/22 01:41:45;;;;;;;21.75;4.32;;;;;;;6.28;100.00;100325.38;5042541;28;20045;-83
2023/12/22 01:44:10;;;;;;;20.95;4.20;;;;;;;6.32;100.00;100323.38;5036419;28;20034;-83
2023/12/22 01:46:36;;;;;;;17.70;4.25;;;;;;;6.35;100.00;100327.56;5031781;28;20481;-83
2023/12/22 01:49:02;;;;;;;16.00;3.55;;;;;;;6.33;100.00;100329.44;5044458;28;20033;-83
2023/12/22 01:51:33;;;;;;;14.63;3.60;;;;;;;6.32;100.00;100322.56;5047287;28;20021;-83
2023/12/22 01:53:59;;;;;;;20.00;3.95;;;;;;;6.28;100.00;100324.53;5047204;28;20035;-83
2023/12/22 01:56:25;;;;;;;17.73;4.10;;;;;;;6.29;100.00;100334.88;5047319;28;20028;-83
2023/12/22 01:58:55;;;;;;;17.80;4.72;;;;;;;6.33;100.00;100332.06;5028832;28;20378;-83
2023/12/22 02:01:22;;;;;;;16.98;4.07;;;;;;;6.33;100.00;100338.13;5029641;28;20033;-82
2023/12/22 02:03:54;;;;;;;17.50;4.07;;;;;;;6.35;100.00;100351.94;5030934;28;20025;-83
2023/12/22 02:06:20;;;;;;;18.88;3.90;;;;;;;6.41;100.00;100348.09;5026806;28;20021;-83
2023/12/22 02:08:49;;;;;;;20.35;4.53;;;;;;;6.40;100.00;100360.31;5045466;28;20051;-82
2023/12/22 02:11:19;;;;;;;17.02;3.90;;;;;;;6.40;100.00;100347.25;5027570;28;20029;-83
2023/12/22 02:13:45;;;;;;;16.85;3.78;;;;;;;6.40;100.00;100338.56;5028811;28;20021;-82
2023/12/22 02:16:34;;;;;;;17.83;4.95;;;;;;;6.39;100.00;100342.13;5028934;28;20087;-82
2023/12/22 02:19:10;;;;;;;17.60;4.00;;;;;;;6.37;100.00;100321.31;5030994;28;20025;-82
2023/12/22 02:21:35;;;;;;;18.38;4.40;;;;;;;6.35;100.00;100324.97;5037268;28;20604;-82
2023/12/22 02:24:01;;;;;;;19.88;4.25;;;;;;;6.32;100.00;100315.56;5052266;28;20057;-82
2023/12/22 02:26:36;;;;;;;17.77;4.60;;;;;;;6.35;100.00;100333.63;5049944;28;20033;-83
2023/12/22 02:29:01;;;;;;;18.80;4.15;;;;;;;6.40;100.00;100338.56;5050626;28;20021;-82
2023/12/22 02:31:37;;;;;;;23.63;4.35;;;;;;;6.46;100.00;100340.81;5051478;28;20032;-84
2023/12/22 02:34:11;;;;;;;22.20;3.90;;;;;;;6.48;100.00;100350.22;5032975;28;20191;-83
2023/12/22 02:36:40;;;;;;;18.15;3.80;;;;;;;6.49;100.00;100374.56;5046376;28;20473;-82
2023/12/22 02:39:07;;;;;;;17.90;3.45;;;;;;;6.47;100.00;100386.91;5046197;28;20401;-82
2023/12/22 02:41:33;;;;;;;15.43;3.85;;;;;;;6.37;100.00;100391.84;5031141;28;20025;-81
2023/12/22 02:43:58;;;;;;;17.67;3.97;;;;;;;6.26;100.00;100369.03;5045293;28;20020;-81
2023/12/22 02:46:24;;;;;;;14.75;3.35;;;;;;;6.16;100.00;100357.50;5033047;28;20410;-80
2023/12/22 02:48:49;;;;;;;17.00;3.92;;;;;;;6.04;100.00;100353.06;5031500;28;20057;-81
2023/12/22 02:51:17;;;;;;;15.93;4.15;;;;;;;5.98;100.00;100358.66;5030385;28;20017;-81
2023/12/22 02:53:43;;;;;;;15.77;3.85;;;;;;;5.93;100.00;100351.09;5041810;28;20036;-81
2023/12/22 02:56:08;;;;;;;14.27;3.78;;;;;;;5.88;100.00;100352.31;5040392;28;20017;-81
2023/12/22 02:58:33;;;;;;;18.13;4.00;;;;;;;5.80;100.00;100329.28;5051511;28;20025;-81
2023/12/22 03:00:59;;;;;;;17.83;4.45;;;;;;;5.74;100.00;100328.84;5050909;28;20079;-83
2023/12/22 03:03:24;;;;;;;21.60;4.50;;;;;;;5.71;100.00;100327.25;5049664;28;20036;-82
2023/12/22 03:05:49;;;;;;;22.38;4.20;;;;;;;5.66;100.00;100335.38;5050118;28;20024;-82
2023/12/22 03:08:18;;;;;;;19.52;4.63;;;;;;;5.68;100.00;100322.22;5049493;28;20543;-82
2023/12/22 03:10:43;;;;;;;24.13;4.68;;;;;;;5.68;100.00;100324.84;5045822;28;20028;-82
2023/12/22 03:13:08;;;;;;;23.10;4.70;;;;;;;5.71;100.00;100324.66;5047287;28;20393;-82
2023/12/22 03:15:34;;;;;;;21.35;5.22;;;;;;;5.73;100.00;100307.13;5045738;28;20631;-82
2023/12/22 03:17:59;;;;;;;25.30;5.32;;;;;;;5.73;100.00;100309.72;5029324;28;20024;-82
2023/12/22 03:20:25;;;;;;;23.02;4.85;;;;;;;5.73;100.00;100309.72;5037762;28;20055;-82
2023/12/22 03:22:50;;;;;;;18.65;4.00;;;;;;;5.74;100.00;100313.19;5041428;28;20492;-82
2023/12/22 03:25:15;;;;;;;23.23;4.85;;;;;;;5.71;100.00;100313.38;5029487;28;20105;-82
2023/12/22 03:27:41;;;;;;;20.33;4.28;;;;;;;5.70;100.00;100303.88;5030641;28;20029;-82
2023/12/22 03:30:07;;;;;;;19.35;4.43;;;;;;;5.70;100.00;100311.69;5030985;28;20445;-82
2023/12/22 03:32:32;;;;;;;19.35;4.70;;;;;;;5.71;100.00;100310.75;5041370;28;20025;-82
2023/12/22 03:34:58;;;;;;;23.67;4.60;;;;;;;5.74;100.00;100310.56;5040794;28;20047;-82
2023/12/22 03:37:23;;;;;;;19.42;4.68;;;;;;;5.81;100.00;100304.03;5046285;28;20029;-82
2023/12/22 03:39:48;;;;;;;20.10;4.30;;;;;;;5.83;100.00;100320.44;5046173;28;20036;-82
2023/12/22 03:42:14;;;;;;;19.70;4.50;;;;;;;5.93;100.00;100308.50;5037480;28;20029;-82
2023/12/22 03:44:39;;;;;;;20.58;3.80;;;;;;;6.00;100.00;100309.78;5031774;28;20033;-82
2023/12/22 03:47:05;;;;;;;16.88;3.70;;;;;;;6.09;100.00;100314.44;5029532;28;20362;-82
2023/12/22 03:49:30;;;;;;;16.58;4.25;;;;;;;6.14;100.00;100320.19;5033499;28;20029;-82
2023/12/22 03:51:55;;;;;;;20.27;3.72;;;;;;;6.17;100.00;100314.78;5034532;28;20520;-82
2023/12/22 03:54:21;;;;;;;20.13;3.80;;;;;;;6.33;100.00;100319.00;5046937;28;20539;-82
2023/12/22 03:56:46;;;;;;;18.17;4.75;;;;;;;6.35;100.00;100314.50;5051355;28;20024;-82
2023/12/22 03:59:13;;;;;;;18.73;3.53;;;;;;;6.35;100.00;100312.75;5033208;28;20087;-84
2023/12/22 04:01:38;;;;;;;14.85;4.00;;;;;;;6.41;100.00;100324.59;5049085;28;20067;-82
2023/12/22 04:04:04;;;;;;;14.98;3.70;;;;;;;6.51;100.00;100320.44;5049733;28;20420;-83
2023/12/22 04:06:29;;;;;;;18.65;4.00;;;;;;;6.55;100.00;100327.13;5048154;28;20102;-83
2023/12/22 04:08:54;;;;;;;15.43;3.78;;;;;;;6.57;100.00;100343.56;5044774;28;20035;-83
2023/12/22 04:11:23;;;;;;;15.55;3.92;;;;;;;6.62;100.00;100332.78;5028807;28;20025;-83
2023/12/22 04:13:49;;;;;;;15.52;3.72;;;;;;;6.65;100.00;100338.66;5030378;28;20021;-83
2023/12/22 04:16:14;;;;;;;16.98;3.47;;;;;;;6.69;100.00;100342.72;5030072;28;20393;-83
2023/12/22 04:18:39;;;;;;;17.60;4.22;;;;;;;6.71;100.00;100348.69;5033095;28;20025;-83
2023/12/22 04:21:05;;;;;;;14.77;3.42;;;;;;;6.71;100.00;100343.47;5046082;28;20063;-83
2023/12/22 04:23:30;;;;;;;18.38;3.83;;;;;;;6.72;100.00;100355.59;5049625;28;20116;-82
2023/12/22 04:25:55;;;;;;;20.10;4.13;;;;;;;6.72;100.00;100355.59;5035893;28;20048;-82
2023/12/22 04:28:21;;;;;;;10.93;3.13;;;;;;;6.79;100.00;100359.47;5031144;28;20064;-83
2023/12/22 04:30:46;;;;;;;16.48;4.05;;;;;;;6.83;100.00;100360.97;5030296;28;20049;-83
2023/12/22 04:33:12;;;;;;;14.70;3.58;;;;;;;6.84;100.00;100369.66;5041984;28;20083;-82
2023/12/22 04:35:37;;;;;;;18.20;3.63;;;;;;;6.85;100.00;100366.94;5048105;28;20021;-83
2023/12/22 04:38:02;;;;;;;20.10;4.45;;;;;;;6.87;100.00;100370.28;5049544;28;20041;-83
2023/12/22 04:40:28;;;;;;;16.67;3.75;;;;;;;6.88;100.00;100360.69;5049829;28;20083;-83
2023/12/22 04:42:53;;;;;;;15.02;3.38;;;;;;;6.89;100.00;100373.66;5031873;28;20036;-83
2023/12/22 04:45:21;;;;;;;18.40;3.72;;;;;;;6.90;100.00;100375.31;5044683;28;20035;-83
2023/12/22 04:47:47;;;;;;;19.90;4.03;;;;;;;6.89;100.00;100368.41;5050866;28;20035;-83
2023/12/22 04:50:12;;;;;;;16.80;3.92;;;;;;;6.89;100.00;100363.19;5048382;28;20025;-83
2023/12/22 04:52:38;;;;;;;18.70;3.50;;;;;;;6.91;100.00;100360.47;5034421;28;20056;-83
2023/12/22 04:55:03;;;;;;;22.33;4.20;;;;;;;6.93;100.00;100358.59;5028761;28;20461;-83
2023/12/22 04:57:29;;;;;;;16.27;3.72;;;;;;;6.95;100.00;100358.47;5028985;28;20026;-82
2023/12/22 04:59:54;;;;;;;15.00;3.67;;;;;;;6.95;100.00;100364.56;5043725;28;20021;-82
2023/12/22 05:02:20;;;;;;;21.63;4.63;;;;;;;7.01;100.00;100374.59;5044393;28;20033;-84
2023/12/22 05:04:45;;;;;;;18.58;3.72;;;;;;;7.02;100.00;100378.06;5056310;28;20127;-83
2023/12/22 05:07:10;;;;;;;15.05;3.50;;;;;;;6.99;100.00;100373.88;5038489;28;20103;-82
2023/12/22 05:09:36;;;;;;;16.95;4.25;;;;;;;7.06;100.00;100385.59;5047905;28;20032;-83
2023/12/22 05:12:01;;;;;;;17.10;3.42;;;;;;;7.08;100.00;100382.88;5047316;28;20032;-83
2023/12/22 05:14:29;;;;;;;21.02;4.25;;;;;;;7.09;100.00;100379.31;5049013;28;20020;-83
2023/12/22 05:16:56;;;;;;;19.10;4.05;;;;;;;7.07;100.00;100371.56;5042542;28;20435;-83
2023/12/22 05:19:21;;;;;;;21.85;4.93;;;;;;;7.08;100.00;100357.56;5031134;28;20484;-83
2023/12/22 05:21:48;;;;;;;20.95;5.35;;;;;;;7.08;100.00;100362.78;5038423;28;20108;-83
2023/12/22 05:24:13;;;;;;;28.30;5.82;;;;;;;7.10;100.00;100378.38;5027781;28;20056;-83
2023/12/22 05:26:39;;;;;;;23.65;5.70;;;;;;;7.13;100.00;100375.56;5030061;28;20374;-83
2023/12/22 05:29:04;;;;;;;23.38;6.22;;;;;;;7.18;100.00;100378.69;5031667;28;20025;-83
2023/12/22 05:31:30;;;;;;;25.25;5.80;;;;;;;7.18;100.00;100374.28;5046637;28;20028;-82
2023/12/22 05:33:56;;;;;;;23.50;5.40;;;;;;;7.22;100.00;100375.78;5028430;28;20045;-83
2023/12/22 05:36:21;;;;;;;20.20;5.30;;;;;;;7.25;100.00;100390.44;5037729;28;20032;-82
2023/12/22 05:38:47;;;;;;;15.02;4.45;;;;;;;7.26;100.00;100367.72;5036975;28;20033;-83
2023/12/22 05:41:13;;;;;;;23.08;5.72;;;;;;;7.23;100.00;100372.22;5047687;28;20040;-83
2023/12/22 05:43:38;;;;;;;22.80;5.25;;;;;;;7.23;100.00;100369.63;5063236;28;20028;-83
2023/12/22 05:46:03;;;;;;;29.83;6.78;;;;;;;7.20;100.00;100372.44;5039909;28;20458;-82
2023/12/22 05:48:29;;;;;;;26.77;6.25;;;;;;;7.18;100.00;100365.59;5029634;28;20385;-82
2023/12/22 05:51:00;;;;;;;29.42;6.72;;;;;;;7.17;100.00;100377.03;5029240;28;20112;-82
2023/12/22 05:53:25;;;;;;;30.17;6.80;;;;;;;7.13;100.00;100375.56;5045163;28;20023;-83
2023/12/22 05:55:50;;;;;;;29.13;6.45;;;;;;;7.12;100.00;100373.88;5046132;28;20451;-83
2023/12/22 05:58:16;;;;;;;28.10;6.82;;;;;;;7.13;100.00;100370.31;5032861;28;20569;-83
2023/12/22 06:00:41;;;;;;;34.75;6.97;;;;;;;7.12;100.00;100373.88;5039688;28;20477;-83
2023/12/22 06:03:06;;;;;;;31.15;8.15;;;;;;;7.11;100.00;100361.75;5047455;28;20111;-82
2023/12/22 06:05:32;;;;;;;31.38;7.45;;;;;;;7.12;100.00;100355.56;5036531;28;20501;-82
2023/12/22 06:08:00;;;;;;;32.03;7.22;;;;;;;7.12;100.00;100360.78;5034753;28;20104;-82
2023/12/22 06:10:25;;;;;;;27.48;6.65;;;;;;;7.12;100.00;100360.78;5040566;28;20021;-82
2023/12/22 06:12:51;;;;;;;27.83;7.22;;;;;;;7.12;100.00;100358.19;5031246;28;20493;-82
2023/12/22 06:15:16;;;;;;;35.70;7.80;;;;;;;7.14;100.00;100345.84;5028677;28;20036;-82
2023/12/22 06:17:41;;;;;;;31.02;7.45;;;;;;;7.18;100.00;100357.75;5027156;28;20090;-83
2023/12/22 06:20:07;;;;;;;30.83;6.95;;;;;;;7.20;100.00;100350.66;5030905;28;20116;-83
2023/12/22 06:22:33;;;;;;;35.45;7.35;;;;;;;7.22;100.00;100357.47;5036852;28;20033;-83
2023/12/22 06:24:58;;;;;;;39.28;8.30;;;;;;;7.24;100.00;100352.13;5029088;28;20060;-83
2023/12/22 06:27:25;;;;;;;35.70;7.88;;;;;;;7.29;100.00;100355.28;5032733;28;20056;-84
2023/12/22 06:29:50;;;;;;;37.20;8.57;;;;;;;7.29;100.00;100350.03;5029956;28;20068;-83
2023/12/22 06:32:17;;;;;;;36.42;8.60;;;;;;;7.33;100.00;100354.13;5037433;28;20096;-83
2023/12/22 06:34:42;;;;;;;31.30;8.05;;;;;;;7.37;100.00;100347.72;5032888;28;20034;-83
2023/12/22 06:37:08;;;;;;;35.90;8.48;;;;;;;7.42;100.00;100360.50;5043193;28;20028;-83
2023/12/22 06:39:33;;;;;;;36.85;8.45;;;;;;;7.43;100.00;100362.16;5042339;28;20037;-84
2023/12/22 06:41:58;;;;;;;34.30;8.60;;;;;;;7.43;100.00;100373.47;5045907;28;20449;-83
2023/12/22 06:44:25;;;;;;;35.63;8.82;;;;;;;7.45;100.00;100381.22;5045948;28;20476;-83
2023/12/22 06:46:51;;;;;;;35.05;8.20;;;;;;;7.42;100.00;100384.06;5048182;28;20108;-83
2023/12/22 06:49:16;;;;;;;37.17;8.55;;;;;;;7.43;100.00;100383.13;5043933;28;20032;-83
2023/12/22 06:51:41;;;;;;;41.33;8.57;;;;;;;7.44;100.00;100369.91;5047931;28;20065;-82
2023/12/22 06:54:07;;;;;;;38.30;8.63;;;;;;;7.45;100.00;100371.59;5042366;28;20037;-82
2023/12/22 06:56:35;;;;;;;41.33;8.50;;;;;;;7.49;100.00;100385.31;5041803;28;20160;-83
2023/12/22 06:59:00;;;;;;;35.70;8.98;;;;;;;7.48;100.00;100371.38;5028592;28;20021;-82
2023/12/22 07:01:35;;;;;;;40.47;9.27;;;;;;;7.50;100.00;100374.72;5032214;28;20436;-82
2023/12/22 07:04:03;;;;;;;39.70;8.63;;;;;;;7.51;100.00;100375.56;5028325;28;20432;-82
2023/12/22 07:06:30;;;;;;;38.50;8.57;;;;;;;7.52;100.00;100365.00;5040452;28;20029;-82
2023/12/22 07:09:14;;;;;;;39.42;8.85;;;;;;;7.58;100.00;100378.59;5051467;28;20036;-82
2023/12/22 07:11:55;;;;;;;33.80;8.82;;;;;;;7.60;100.00;100374.09;5039854;28;20377;-82
2023/12/22 07:14:21;;;;;;;39.22;9.65;;;;;;;7.61;100.00;100368.78;5050166;28;20444;-82
2023/12/22 07:16:46;;;;;;;33.97;8.45;;;;;;;7.64;100.00;100365.94;5051919;28;20025;-82
2023/12/22 07:19:14;;;;;;;35.90;7.55;;;;;;;7.64;100.00;100372.97;5051220;28;20024;-81
2023/12/22 07:21:40;;;;;;;37.90;9.35;;;;;;;7.65;100.00;100367.63;5050940;28;20029;-83
2023/12/22 07:24:06;;;;;;;35.83;8.13;;;;;;;7.66;100.00;100368.44;5045615;28;20021;-82
2023/12/22 07:26:32;;;;;;;33.97;8.15;;;;;;;7.64;100.00;100378.19;5046948;28;20036;-82
2023/12/22 07:28:58;;;;;;;38.47;8.48;;;;;;;7.64;100.00;100370.34;5051197;28;20029;-82
2023/12/22 07:31:24;;;;;;;37.88;7.80;;;;;;;7.68;100.00;100356.09;5045057;28;20121;-82
2023/12/22 07:33:49;;;;;;;34.53;8.30;;;;;;;7.67;100.00;100359.66;5044583;28;20045;-82
2023/12/22 07:36:14;;;;;;;34.53;7.53;;;;;;;7.69;100.00;100353.38;5049953;28;20533;-80
2023/12/22 07:38:40;;;;;;;34.55;8.43;;;;;;;7.73;100.00;100364.47;5048600;28;20033;-81
2023/12/22 07:41:05;;;;;;;35.25;7.75;;;;;;;7.73;100.00;100364.47;5050236;28;20028;-81
2023/12/22 07:43:31;;;;;;;35.10;8.00;;;;;;;7.74;100.00;100363.50;5050457;28;20035;-82
2023/12/22 07:46:00;;;;;;;35.30;7.70;;;;;;;7.73;100.00;100353.97;5048718;28;20029;-82
2023/12/22 07:48:25;;;;;;;34.28;7.50;;;;;;;7.75;100.00;100365.19;5048911;28;20029;-82
2023/12/22 07:50:50;;;;;;;28.90;7.03;;;;;;;7.73;100.00;100360.06;5050420;28;20453;-82
2023/12/22 07:53:16;;;;;;;35.38;8.20;;;;;;;7.74;100.00;100356.50;5048706;28;20496;-82
2023/12/22 07:55:43;;;;;;;38.28;8.15;;;;;;;7.77;100.00;100366.75;5050659;28;20462;-82
2023/12/22 07:58:08;;;;;;;35.72;7.35;;;;;;;7.80;100.00;100360.47;5043010;28;20067;-82
2023/12/22 08:00:34;;;;;;;37.83;7.35;;;;;;;7.80;100.00;100344.75;5038039;28;20443;-82
2023/12/22 08:03:00;;;;;;;32.10;7.70;;;;;;;7.82;100.00;100353.34;5048596;28;20564;-83
2023/12/22 08:05:25;;;;;;;31.27;6.93;;;;;;;7.85;100.00;100363.59;5046722;28;20112;-82
2023/12/22 08:07:51;;;;;;;30.92;7.22;;;;;;;7.88;100.00;100358.13;5040350;28;20108;-82
2023/12/22 08:10:17;;;;;;;29.95;6.80;;;;;;;7.91;100.00;100367.56;5049166;28;20424;-83
2023/12/22 08:12:43;;;;;;;28.52;6.65;;;;;;;7.92;100.00;100372.69;5050641;28;20052;-82
2023/12/22 08:15:12;;;;;;;31.98;6.57;;;;;;;7.94;100.00;100364.72;5049369;28;20021;-82
2023/12/22 08:17:37;;;;;;;26.88;5.85;;;;;;;7.96;100.00;100363.66;5050447;28;20025;-83
2023/12/22 08:20:08;;;;;;;27.48;6.20;;;;;;;7.97;100.00;100369.75;5049222;28;20100;-82
2023/12/22 08:22:33;;;;;;;24.30;5.72;;;;;;;7.98;100.00;100368.78;5050324;28;20527;-83
2023/12/22 08:24:59;;;;;;;21.67;5.10;;;;;;;8.00;100.00;100357.25;5049528;28;20029;-82
2023/12/22 08:27:24;;;;;;;26.40;5.85;;;;;;;7.99;100.00;100360.00;5044393;28;20025;-82
2023/12/22 08:29:49;;;;;;;19.92;5.45;;;;;;;8.02;100.00;100365.88;5043400;28;20029;-82
2023/12/22 08:32:15;;;;;;;28.60;6.32;;;;;;;8.03;100.00;100357.06;5050700;28;20021;-83
2023/12/22 08:34:41;;;;;;;20.52;5.55;;;;;;;8.05;100.00;100359.56;5039928;28;20065;-81
2023/12/22 08:37:06;;;;;;;24.50;5.25;;;;;;;8.06;100.00;100362.09;5038125;28;20053;-82
2023/12/22 08:39:31;;;;;;;19.35;4.82;;;;;;;8.07;100.00;100358.53;5047846;28;20036;-82
2023/12/22 08:42:00;;;;;;;19.52;4.45;;;;;;;8.07;100.00;100353.28;5037848;28;20104;-83
2023/12/22 08:44:25;;;;;;;18.83;4.28;;;;;;;8.09;100.00;100356.63;5044726;28;20030;-83
2023/12/22 08:46:51;;;;;;;19.13;4.15;;;;;;;8.10;100.00;100350.44;5043231;28;20051;-83
2023/12/22 08:49:16;;;;;;;19.55;4.20;;;;;;;8.11;100.00;100348.66;5046484;28;20116;-83
2023/12/22 08:51:42;;;;;;;16.80;3.92;;;;;;;8.11;100.00;100346.88;5049782;28;20024;-83
2023/12/22 08:54:08;;;;;;;13.05;3.55;;;;;;;8.12;100.00;100356.41;5036049;28;20115;-82
2023/12/22 08:56:35;;;;;;;14.32;3.70;;;;;;;8.12;100.00;100339.84;5048676;28;20431;-83
2023/12/22 08:59:00;;;;;;;14.57;3.20;;;;;;;8.09;100.00;100351.38;5039251;28;20401;-83
2023/12/22 09:01:26;;;;;;;14.70;3.83;;;;;;;8.09;100.00;100350.56;5028063;28;20029;-82
2023/12/22 09:03:52;;;;;;;13.52;3.58;;;;;;;8.06;100.00;100354.22;5035792;28;20485;-82
2023/12/22 09:06:20;;;;;;;14.27;3.53;;;;;;;8.07;100.00;100349.81;5028737;28;20301;-82
2023/12/22 09:08:45;;;;;;;13.25;3.05;;;;;;;8.08;100.00;100343.63;5041080;28;20040;-83
2023/12/22 09:11:11;;;;;;;13.60;3.42;;;;;;;8.09;100.00;100340.91;5047786;28;20025;-82
2023/12/22 09:13:37;;;;;;;11.25;2.92;;;;;;;8.11;100.00;100330.31;5049776;28;20029;-82
2023/12/22 09:16:03;;;;;;;12.40;2.92;;;;;;;8.14;100.00;100336.16;5049391;28;20020;-84
2023/12/22 09:18:28;;;;;;;13.25;2.85;;;;;;;8.17;100.00;100342.97;5049451;28;20521;-83
2023/12/22 09:20:53;;;;;;;10.57;2.88;;;;;;;8.18;100.00;100350.72;5040775;28;20022;-83
2023/12/22 09:23:19;;;;;;;10.38;2.13;;;;;;;8.21;100.00;100343.59;5039784;28;20025;-83
2023/12/22 09:25:45;;;;;;;8.57;2.33;;;;;;;8.24;100.00;100340.75;5046590;28;20029;-83
2023/12/22 09:28:10;;;;;;;8.60;2.22;;;;;;;8.25;100.00;100342.41;5046581;28;20036;-82
2023/12/22 09:30:36;;;;;;;8.43;2.22;;;;;;;8.29;100.00;100336.84;5045640;28;20074;-81
2023/12/22 09:33:01;;;;;;;8.98;1.95;;;;;;;8.31;100.00;100324.44;5048556;28;20068;-81
2023/12/22 09:35:27;;;;;;;6.70;1.90;;;;;;;8.37;100.00;100333.69;5049055;28;20020;-81
2023/12/22 09:37:53;;;;;;;9.35;1.77;;;;;;;8.41;100.00;100322.88;5046111;28;20536;-81
2023/12/22 09:40:18;;;;;;;5.65;1.80;;;;;;;8.45;100.00;100305.16;5048462;28;20037;-81
2023/12/22 09:42:46;;;;;;;7.28;2.20;;;;;;;8.48;100.00;100316.25;5047376;28;20025;-82
2023/12/22 09:45:13;;;;;;;7.25;2.03;;;;;;;8.53;100.00;100307.19;5045687;28;20410;-81
2023/12/22 09:47:42;;;;;;;7.55;1.90;;;;;;;8.56;100.00;100312.22;5046531;28;20024;-82
2023/12/22 09:50:08;;;;;;;7.03;1.73;;;;;;;8.59;100.00;100311.97;5046936;28;20366;-82
2023/12/22 09:52:35;;;;;;;7.03;1.83;;;;;;;8.63;100.00;100318.66;5063135;28;20443;-81
2023/12/22 09:55:02;;;;;;;6.50;1.80;;;;;;;8.67;100.00;100320.94;5047693;28;20381;-81
2023/12/22 09:57:31;;;;;;;7.00;1.88;;;;;;;8.68;100.00;100319.16;5047703;28;20503;-81
2023/12/22 10:00:00;;;;;;;6.35;1.75;;;;;;;8.69;100.00;100319.03;5047133;28;20652;-81
2023/12/22 10:02:27;;;;;;;6.35;1.73;;;;;;;8.71;100.00;100319.75;5027180;28;20064;-81
2023/12/22 10:04:53;;;;;;;7.45;2.03;;;;;;;8.78;100.00;100310.47;5045692;28;20056;-81
2023/12/22 10:07:20;;;;;;;12.32;2.72;;;;;;;8.83;100.00;100312.78;5045017;28;20064;-81
2023/12/22 10:09:47;;;;;;;7.97;2.10;;;;;;;8.89;100.00;100311.47;5048121;28;20039;-82
2023/12/22 10:12:14;;;;;;;10.20;2.10;;;;;;;8.95;100.00;100318.88;5043265;28;20071;-81
2023/12/22 10:14:41;;;;;;;7.95;1.88;;;;;;;9.03;100.00;100316.50;5035195;28;20108;-81
2023/12/22 10:17:06;;;;;;;7.53;1.92;;;;;;;9.08;100.00;100296.00;5046381;28;20053;-82
2023/12/22 10:19:32;;;;;;;7.97;1.88;;;;;;;9.12;100.00;100310.56;5047291;28;20059;-81
2023/12/22 10:21:58;;;;;;;8.98;2.08;;;;;;;9.15;100.00;100312.94;5048449;28;20082;-81
2023/12/22 10:24:46;;;;;;;7.40;1.60;;;;;;;9.19;100.00;100319.63;5048244;28;20031;-81
2023/12/22 10:27:13;;;;;;;5.93;1.70;;;;;;;9.20;100.00;100323.09;5046193;28;20021;-81
2023/12/22 10:29:39;;;;;;;5.90;1.77;;;;;;;9.22;100.00;100322.03;5039253;28;20791;-81
2023/12/22 10:32:06;;;;;;;8.23;1.95;;;;;;;9.25;100.00;100318.34;5042367;28;21109;-82
2023/12/22 10:34:31;;;;;;;9.82;2.05;;;;;;;9.26;100.00;100320.84;5047912;28;20037;-82
2023/12/22 10:37:01;;;;;;;7.72;1.92;;;;;;;9.28;100.00;100316.31;5049287;28;20028;-82
2023/12/22 10:39:28;;;;;;;6.30;1.90;;;;;;;9.29;100.00;100327.66;5048411;28;20037;-82
2023/12/22 10:41:59;;;;;;;7.28;1.92;;;;;;;9.31;100.00;100316.06;5052987;28;20069;-83
2023/12/22 10:44:25;;;;;;;4.75;1.90;;;;;;;9.32;100.00;100320.38;5052833;28;20069;-83
2023/12/22 10:46:51;;;;;;;5.35;1.50;;;;;;;9.35;100.00;100320.13;5046134;28;20036;-83
2023/12/22 10:49:17;;;;;;;8.95;2.10;;;;;;;9.35;100.00;100335.06;5038147;28;20743;-83
2023/12/22 10:51:42;;;;;;;4.43;1.35;;;;;;;9.37;100.00;100326.09;5050543;28;20028;-83
2023/12/22 10:54:08;;;;;;;8.27;1.58;;;;;;;9.37;100.00;100335.75;5050976;28;20393;-83
2023/12/22 10:56:34;;;;;;;6.38;1.55;;;;;;;9.40;100.00;100325.03;5041483;28;20033;-83
2023/12/22 10:59:01;;;;;;;5.63;1.65;;;;;;;9.45;100.00;100322.88;5042472;28;20014;-83
2023/12/22 11:01:29;;;;;;;8.07;1.92;;;;;;;9.49;100.00;100328.72;5042141;28;20052;-82
2023/12/22 11:04:05;;;;;;;4.85;1.30;;;;;;;9.51;100.00;100334.69;5047437;28;20448;-83
2023/12/22 11:06:34;;;;;;;5.18;1.55;;;;;;;9.53;100.00;100330.16;5035083;28;20440;-82
2023/12/22 11:09:03;;;;;;;6.47;1.77;;;;;;;9.54;100.00;100310.81;5032806;28;20500;-83
2023/12/22 11:11:36;;;;;;;6.55;1.83;;;;;;;9.54;100.00;100316.06;5030143;28;20082;-82
2023/12/22 11:14:02;;;;;;;8.02;1.60;;;;;;;9.59;100.00;100313.91;5031561;28;20021;-83
2023/12/22 11:16:28;;;;;;;6.85;1.73;;;;;;;9.62;100.00;100303.19;5043766;28;20024;-82